Time;durP1;ratioP1;P1;durP2;ratioP2;P2;SDS_P1;SDS_P2;PMS_P1;PMS_P2;Temp;Humidity;BMP_temperature;BMP_pressure;BME280_temperature;BME280_humidity;BME280_pressure;Samples;Min_cycle;Max_cycle;Signal;HPM_P1;HPM_P2
2023/12/02 05:46:07;;;;;;;59.28;24.88;;;;;;;;;;7611828;19;20387;-71
2023/12/02 05:48:40;;;;;;;55.72;26.60;;;;;;;;;;7610264;19;20015;-72
2023/12/02 05:51:14;;;;;;;57.60;25.15;;;;;;;;;;7609180;19;20028;-72
2023/12/02 05:53:47;;;;;;;;;;;;;;;;;;7626861;19;20033;-70
2023/12/02 05:56:21;;;;;;;57.78;25.52;;;;;;;;;;7613998;19;25068;-70
2023/12/02 05:58:54;;;;;;;55.45;25.38;;;;;;;;;;7615097;19;20072;-72
2023/12/02 06:01:27;;;;;;;48.80;22.88;;;;;;;;;;7620038;19;20014;-70
2023/12/02 06:04:01;;;;;;;51.00;23.40;;;;;;;;;;7621213;19;20379;-71
2023/12/02 06:06:34;;;;;;;51.15;24.35;;;;;;;;;;7619841;19;20022;-70
2023/12/02 06:09:07;;;;;;;55.03;25.97;;;;;;;;;;7618757;19;20082;-70
2023/12/02 06:11:40;;;;;;;50.38;22.90;;;;;;;;;;7616620;19;20504;-72
2023/12/02 06:14:12;;;;;;;52.80;25.53;;;;;;;;;;7608784;19;20018;-70
2023/12/02 06:16:46;;;;;;;57.07;27.13;;;;;;;;;;7618027;19;20997;-70
2023/12/02 06:19:20;;;;;;;60.92;26.58;;;;;;;;;;7613972;19;20018;-71
2023/12/02 06:21:53;;;;;;;54.67;25.60;;;;;;;;;;7604945;19;20064;-71
2023/12/02 06:24:26;;;;;;;53.27;25.13;;;;;;;;;;7612001;19;20018;-71
2023/12/02 06:26:59;;;;;;;54.85;25.02;;;;;;;;;;7609189;19;20020;-71
2023/12/02 06:29:32;;;;;;;54.37;24.43;;;;;;;;;;7601480;19;20022;-69
2023/12/02 06:32:05;;;;;;;51.53;24.97;;;;;;;;;;7610010;19;20279;-71
2023/12/02 06:34:37;;;;;;;51.22;25.13;;;;;;;;;;7617258;19;20030;-72
2023/12/02 06:37:10;;;;;;;55.55;24.40;;;;;;;;;;7585649;19;20018;-72
2023/12/02 06:39:43;;;;;;;50.13;24.55;;;;;;;;;;7610186;19;20018;-70
2023/12/02 06:42:16;;;;;;;50.85;24.15;;;;;;;;;;7616576;19;21104;-70
2023/12/02 06:44:49;;;;;;;48.58;23.08;;;;;;;;;;7608239;19;20014;-70
2023/12/02 06:47:21;;;;;;;;;;;;;;;;;;7613055;19;20014;-70
2023/12/02 06:49:54;;;;;;;49.58;23.00;;;;;;;;;;7620910;19;19918;-72
2023/12/02 06:52:27;;;;;;;52.77;24.60;;;;;;;;;;7593200;19;20010;-72
2023/12/02 06:55:00;;;;;;;53.07;22.07;;;;;;;;;;7619298;19;20017;-69
2023/12/02 06:57:35;;;;;;;48.92;22.70;;;;;;;;;;7581669;19;20022;-71
2023/12/02 07:00:10;;;;;;;49.53;22.95;;;;;;;;;;7577736;19;20018;-70
2023/12/02 07:02:42;;;;;;;54.88;26.77;;;;;;;;;;7588538;19;20020;-69
2023/12/02 07:05:15;;;;;;;50.25;24.73;;;;;;;;;;7584010;19;20010;-71
2023/12/02 07:07:48;;;;;;;;;;;;;;;;;;7584455;19;20933;-69
2023/12/02 07:10:21;;;;;;;56.42;25.48;;;;;;;;;;7582946;19;20758;-70
2023/12/02 07:12:54;;;;;;;52.03;24.40;;;;;;;;;;7570601;19;20113;-71
2023/12/02 07:15:26;;;;;;;47.47;22.55;;;;;;;;;;7571576;19;20297;-71
2023/12/02 07:17:59;;;;;;;57.50;29.47;;;;;;;;;;7575490;19;20018;-72
2023/12/02 07:20:32;;;;;;;57.58;28.85;;;;;;;;;;7565715;19;20022;-70
2023/12/02 07:23:05;;;;;;;48.78;24.38;;;;;;;;;;7567603;19;20101;-70
2023/12/02 07:25:38;;;;;;;49.95;24.27;;;;;;;;;;7576500;19;21090;-69
2023/12/02 07:28:10;;;;;;;48.10;24.75;;;;;;;;;;7531601;19;20048;-71
2023/12/02 07:30:43;;;;;;;48.10;24.00;;;;;;;;;;7561636;19;20044;-71
2023/12/02 07:33:16;;;;;;;37.53;19.60;;;;;;;;;;7571182;19;20035;-70
2023/12/02 07:35:49;;;;;;;48.28;24.23;;;;;;;;;;7568576;19;20891;-71
2023/12/02 07:38:22;;;;;;;47.10;23.27;;;;;;;;;;7566447;19;21320;-69
2023/12/02 07:40:55;;;;;;;48.67;22.80;;;;;;;;;;7565953;19;20019;-70
2023/12/02 07:43:28;;;;;;;47.83;23.50;;;;;;;;;;7558229;19;20048;-72
2023/12/02 07:46:01;;;;;;;45.83;21.95;;;;;;;;;;7558507;19;20025;-72
2023/12/02 07:48:34;;;;;;;43.40;21.50;;;;;;;;;;7569804;19;20053;-71
2023/12/02 07:51:07;;;;;;;47.83;22.00;;;;;;;;;;7592310;19;20019;-71
2023/12/02 07:53:40;;;;;;;47.17;23.27;;;;;;;;;;7560883;19;20311;-71
2023/12/02 07:56:13;;;;;;;45.97;22.45;;;;;;;;;;7568398;19;20022;-71
2023/12/02 07:58:46;;;;;;;45.95;21.13;;;;;;;;;;7564644;19;20822;-72
2023/12/02 08:01:19;;;;;;;39.60;20.80;;;;;;;;;;7561330;19;20014;-70
2023/12/02 08:03:51;;;;;;;47.63;21.47;;;;;;;;;;7571378;19;20132;-71
2023/12/02 08:06:24;;;;;;;47.17;21.67;;;;;;;;;;7541825;19;20022;-71
2023/12/02 08:08:57;;;;;;;35.47;17.47;;;;;;;;;;7560986;19;20018;-69
2023/12/02 08:11:30;;;;;;;40.53;20.00;;;;;;;;;;7563868;19;20041;-72
2023/12/02 08:14:03;;;;;;;39.42;19.67;;;;;;;;;;7568994;19;20337;-70
2023/12/02 08:16:36;;;;;;;42.33;19.85;;;;;;;;;;7590405;19;20015;-70
2023/12/02 08:19:08;;;;;;;39.17;19.77;;;;;;;;;;7552269;19;20019;-69
2023/12/02 08:21:41;;;;;;;42.87;21.40;;;;;;;;;;7562509;19;20046;-69
2023/12/02 08:24:15;;;;;;;43.20;20.65;;;;;;;;;;7569009;19;20082;-71
2023/12/02 08:26:48;;;;;;;42.15;20.17;;;;;;;;;;7558561;19;20788;-72
2023/12/02 08:29:21;;;;;;;43.28;21.08;;;;;;;;;;7548344;19;20868;-69
2023/12/02 08:31:53;;;;;;;45.03;20.88;;;;;;;;;;7563964;19;20870;-70
2023/12/02 08:34:26;;;;;;;38.53;20.17;;;;;;;;;;7568408;19;20141;-69
2023/12/02 08:36:59;;;;;;;39.60;19.92;;;;;;;;;;7571276;19;20014;-73
2023/12/02 08:39:32;;;;;;;45.47;21.77;;;;;;;;;;7562730;19;20579;-69
2023/12/02 08:42:05;;;;;;;40.05;19.13;;;;;;;;;;7562132;19;20010;-70
2023/12/02 08:44:40;;;;;;;40.45;20.20;;;;;;;;;;7548463;19;20056;-70
2023/12/02 08:47:13;;;;;;;39.42;20.20;;;;;;;;;;7555224;19;20015;-69
2023/12/02 08:49:46;;;;;;;37.10;17.87;;;;;;;;;;7562085;19;20022;-69
2023/12/02 08:52:19;;;;;;;46.83;20.38;;;;;;;;;;7558842;19;20096;-69
2023/12/02 08:54:51;;;;;;;49.10;22.53;;;;;;;;;;7570832;19;20017;-69
2023/12/02 08:57:24;;;;;;;46.20;22.00;;;;;;;;;;7550840;19;20997;-68
2023/12/02 08:59:56;;;;;;;43.67;21.00;;;;;;;;;;7568604;19;20598;-69
2023/12/02 09:02:29;;;;;;;39.03;19.13;;;;;;;;;;7549418;19;20025;-70
2023/12/02 09:05:02;;;;;;;35.10;17.98;;;;;;;;;;7562725;19;20010;-70
2023/12/02 09:07:35;;;;;;;32.45;17.05;;;;;;;;;;7557371;19;20021;-69
2023/12/02 09:10:09;;;;;;;36.13;18.92;;;;;;;;;;7560019;19;20045;-69
2023/12/02 09:12:41;;;;;;;41.00;19.63;;;;;;;;;;7518718;19;20017;-71
2023/12/02 09:15:17;;;;;;;37.67;18.92;;;;;;;;;;7543022;19;20056;-70
2023/12/02 09:17:57;;;;;;;36.92;18.17;;;;;;;;;;7576779;19;20018;-71
2023/12/02 09:20:32;;;;;;;38.47;19.25;;;;;;;;;;7556319;19;20508;-68
2023/12/02 09:23:06;;;;;;;35.10;16.35;;;;;;;;;;7558804;19;20014;-71
2023/12/02 09:25:39;;;;;;;33.65;17.55;;;;;;;;;;7571358;19;20014;-70
2023/12/02 09:28:16;;;;;;;36.03;18.00;;;;;;;;;;7564076;19;20027;-73
2023/12/02 09:30:55;;;;;;;36.47;18.60;;;;;;;;;;7554139;19;20014;-73
2023/12/02 09:33:41;;;;;;;38.72;18.25;;;;;;;;;;7568081;19;21655;-71
2023/12/02 09:36:32;;;;;;;39.33;19.00;;;;;;;;;;7580866;19;20014;-72
2023/12/02 09:39:09;;;;;;;34.22;17.08;;;;;;;;;;7588259;19;20023;-73
2023/12/02 09:41:48;;;;;;;36.40;18.85;;;;;;;;;;7576586;19;20017;-72
2023/12/02 09:44:24;;;;;;;34.85;16.85;;;;;;;;;;7582778;19;20023;-70
2023/12/02 09:46:57;;;;;;;36.35;18.35;;;;;;;;;;7547389;19;20026;-70
2023/12/02 09:49:33;;;;;;;34.75;17.33;;;;;;;;;;7533486;19;20029;-70
2023/12/02 09:52:07;;;;;;;41.83;20.77;;;;;;;;;;7513495;19;20094;-72
2023/12/02 09:54:43;;;;;;;42.53;21.30;;;;;;;;;;7510336;19;20011;-71
2023/12/02 09:57:36;;;;;;;41.58;21.15;;;;;;;;;;7551934;19;20309;-72
2023/12/02 10:00:20;;;;;;;43.58;21.40;;;;;;;;;;7571830;19;20022;-72
2023/12/02 10:02:52;;;;;;;;;;;;;;;;;;7572863;19;20007;-71
2023/12/02 10:05:25;;;;;;;45.60;22.48;;;;;;;;;;7576151;19;19919;-72
2023/12/02 10:08:07;;;;;;;50.72;22.65;;;;;;;;;;7573606;19;20014;-71
2023/12/02 10:11:00;;;;;;;48.33;23.27;;;;;;;;;;7576411;19;20022;-72
2023/12/02 10:13:38;;;;;;;49.92;23.20;;;;;;;;;;7577839;19;20976;-72
2023/12/02 10:16:15;;;;;;;50.10;23.92;;;;;;;;;;7576042;19;20026;-72
2023/12/02 10:18:52;;;;;;;47.83;23.52;;;;;;;;;;7578580;19;20087;-71
2023/12/02 10:21:28;;;;;;;39.63;19.95;;;;;;;;;;7577006;19;20025;-71
2023/12/02 10:24:08;;;;;;;42.40;21.15;;;;;;;;;;7580930;19;20054;-70
2023/12/02 10:26:42;;;;;;;42.38;20.77;;;;;;;;;;7577742;19;20010;-71
2023/12/02 10:29:24;;;;;;;42.92;20.83;;;;;;;;;;7563902;19;20018;-72
2023/12/02 10:32:18;;;;;;;47.40;22.75;;;;;;;;;;7595647;19;20492;-72
2023/12/02 10:35:00;;;;;;;45.05;21.17;;;;;;;;;;7592466;19;20018;-71
2023/12/02 10:37:39;;;;;;;51.60;22.30;;;;;;;;;;7585378;19;20018;-71
2023/12/02 10:40:14;;;;;;;42.70;22.23;;;;;;;;;;7588950;19;20026;-71
2023/12/02 10:42:46;;;;;;;48.28;22.67;;;;;;;;;;7595735;19;20006;-72
2023/12/02 10:45:20;;;;;;;46.53;22.15;;;;;;;;;;7596560;19;20078;-72
2023/12/02 10:47:53;;;;;;;;;;;;;;;;;;7589765;19;20010;-71
2023/12/02 10:50:25;;;;;;;44.65;19.95;;;;;;;;;;7574931;19;19918;-72
2023/12/02 10:53:03;;;;;;;39.30;19.13;;;;;;;;;;7585763;19;20108;-71
2023/12/02 10:55:37;;;;;;;51.05;23.63;;;;;;;;;;7563337;19;20022;-70
2023/12/02 10:58:10;;;;;;;44.78;21.77;;;;;;;;;;7586501;19;20019;-70
2023/12/02 11:00:44;;;;;;;41.92;19.75;;;;;;;;;;7598966;19;20519;-70
2023/12/02 11:03:20;;;;;;;43.08;19.88;;;;;;;;;;7581111;19;20019;-70
2023/12/02 11:06:19;;;;;;;45.45;19.85;;;;;;;;;;7562824;19;20010;-69
2023/12/02 11:08:59;;;;;;;42.50;20.20;;;;;;;;;;7578107;19;20011;-69
2023/12/02 11:11:42;;;;;;;42.35;19.85;;;;;;;;;;7576562;19;20085;-69
2023/12/02 13:59:39;;;;;;;53.28;23.65;;;-1.40;99.90;;;;;;7130062;19;9999808;-72
2023/12/02 14:02:37;;;;;;;56.97;24.33;;;;;;;;;;7618361;19;20500;-70
2023/12/02 14:05:22;;;;;;;54.03;24.10;;;;;;;;;;7618746;19;20028;-70
2023/12/02 14:07:59;;;;;;;55.35;24.63;;;;;;;;;;7618989;19;20029;-70
2023/12/02 14:10:32;;;;;;;52.55;23.60;;;;;;;;;;7628715;19;20018;-69
2023/12/02 14:13:16;;;;;;;59.47;24.95;;;;;;;;;;7624342;19;20018;-69
2023/12/02 14:16:04;;;;;;;57.30;25.02;;;;;;;;;;7628554;19;20453;-70
2023/12/02 14:18:48;;;;;;;55.10;22.92;;;;;;;;;;7617567;19;20024;-70
2023/12/02 14:21:40;;;;;;;46.83;21.42;;;;;;;;;;7619021;19;20054;-70
2023/12/02 14:24:25;;;;;;;51.33;22.30;;;;;;;;;;7621296;19;20046;-70
2023/12/02 14:27:33;;;;;;;54.70;23.77;;;;;;;;;;7621385;19;20018;-70
2023/12/02 14:30:17;;;;;;;45.30;20.73;;;;;;;;;;7595393;19;20531;-70
2023/12/02 14:33:09;;;;;;;53.90;23.67;;;;;;;;;;7599380;19;20014;-70
2023/12/02 14:35:48;;;;;;;47.83;20.48;;;;;;;;;;7607935;19;20021;-70
2023/12/02 14:38:24;;;;;;;51.95;22.67;;;;;;;;;;7623137;19;20394;-69
2023/12/02 14:41:03;;;;;;;48.75;21.95;;;;;;;;;;7616652;19;20623;-72
2023/12/02 14:43:54;;;;;;;40.90;20.88;;;;;;;;;;7623119;19;20018;-70
2023/12/02 14:46:30;;;;;;;48.10;20.65;;;;;;;;;;7617150;19;20018;-70
2023/12/02 14:49:03;;;;;;;44.97;21.42;;;;;;;;;;7610305;19;21030;-72
2023/12/02 14:51:37;;;;;;;47.30;21.73;;;;;;;;;;7619158;19;20018;-70
2023/12/02 14:54:10;;;;;;;45.20;19.87;;;;;;;;;;7616328;19;20025;-70
2023/12/02 14:56:43;;;;;;;43.00;20.17;;;;;;;;;;7619748;19;20283;-70
2023/12/02 14:59:18;;;;;;;40.75;18.48;;;-1.50;99.90;;;;;;7604130;19;20010;-70
2023/12/02 15:01:52;;;;;;;41.00;17.08;;;-1.70;99.90;;;;;;7622624;19;20771;-72
2023/12/02 15:04:24;;;;;;;36.53;17.75;;;-1.70;99.90;;;;;;7611224;19;20021;-69
2023/12/02 15:06:57;;;;;;;40.85;17.90;;;-1.80;99.90;;;;;;7619044;19;25462;-69
2023/12/02 15:09:30;;;;;;;41.20;18.70;;;;;;;;;;7599804;19;20010;-73
2023/12/02 15:12:06;;;;;;;41.72;17.38;;;-1.90;99.90;;;;;;7591798;19;20007;-69
2023/12/02 15:14:39;;;;;;;36.78;18.02;;;-1.90;99.90;;;;;;7591999;19;20068;-70
2023/12/02 15:17:11;;;;;;;37.45;17.23;;;-2.10;99.90;;;;;;7578904;19;20113;-69
2023/12/02 15:19:47;;;;;;;40.57;17.73;;;-2.10;99.90;;;;;;7584687;19;20966;-72
2023/12/02 15:22:20;;;;;;;38.58;17.50;;;-2.10;99.90;;;;;;7576542;19;21016;-70
2023/12/02 15:24:52;;;;;;;39.55;18.27;;;-2.10;99.90;;;;;;7577316;19;20346;-73
2023/12/02 15:27:25;;;;;;;43.73;19.83;;;-2.10;99.90;;;;;;7574021;19;20052;-70
2023/12/02 15:29:57;;;;;;;41.58;18.48;;;-2.10;99.90;;;;;;7576450;19;20052;-72
2023/12/02 15:32:31;;;;;;;37.25;16.88;;;-2.20;99.90;;;;;;7582586;19;20093;-70
2023/12/02 15:35:05;;;;;;;46.95;20.88;;;-2.20;99.90;;;;;;7581961;19;20026;-70
2023/12/02 15:37:37;;;;;;;42.00;18.85;;;-2.40;99.90;;;;;;7575032;19;20123;-68
2023/12/02 15:40:10;;;;;;;42.85;19.05;;;-2.20;99.90;;;;;;7585962;19;20035;-70
2023/12/02 15:42:43;;;;;;;38.13;17.27;;;-2.40;99.90;;;;;;7568159;19;20603;-72
2023/12/02 15:45:16;;;;;;;41.55;18.13;;;-2.40;99.90;;;;;;7582549;19;20019;-72
2023/12/02 15:47:49;;;;;;;44.83;19.58;;;-2.30;99.90;;;;;;7582728;19;20030;-72
2023/12/02 15:50:21;;;;;;;50.53;23.23;;;-2.30;99.90;;;;;;7572351;19;20168;-72
2023/12/02 15:52:55;;;;;;;44.90;19.90;;;-2.30;99.90;;;;;;7584999;19;20010;-70
2023/12/02 15:55:27;;;;;;;;;;;-2.30;99.90;;;;;;7581192;19;20630;-69
2023/12/02 15:58:01;;;;;;;48.67;20.40;;;-2.30;99.90;;;;;;7584728;19;19990;-69
2023/12/02 16:00:36;;;;;;;47.10;20.90;;;-2.40;99.90;;;;;;7586997;19;20018;-72
2023/12/02 16:03:10;;;;;;;48.15;22.10;;;-2.40;99.90;;;;;;7571436;19;20049;-69
2023/12/02 16:05:46;;;;;;;49.78;22.63;;;-2.40;99.90;;;;;;7559399;19;20010;-72
2023/12/02 16:08:23;;;;;;;49.13;22.13;;;-2.40;99.90;;;;;;7574373;19;20018;-70
2023/12/02 16:11:07;;;;;;;50.30;23.55;;;-2.30;99.90;;;;;;7582637;19;20033;-71
2023/12/02 16:13:41;;;;;;;53.53;23.42;;;-2.30;99.90;;;;;;7563148;19;20062;-71
2023/12/02 16:16:20;;;;;;;51.08;24.00;;;-2.30;99.90;;;;;;7577412;19;20019;-71
2023/12/02 16:18:55;;;;;;;51.47;23.35;;;;;;;;;;7572960;19;21261;-71
2023/12/02 16:21:28;;;;;;;60.30;24.63;;;;;;;;;;7572263;19;20002;-71
2023/12/02 16:24:00;;;;;;;56.63;24.23;;;;;;;;;;7584104;19;20505;-71
2023/12/02 16:26:36;;;;;;;84.28;39.65;;;;;;;;;;7563837;19;20019;-71
2023/12/02 16:29:08;;;;;;;87.88;41.13;;;;;;;;;;7570121;19;20082;-71
2023/12/02 16:31:41;;;;;;;;;;;;;;;;;;7573045;19;20105;-71
2023/12/02 16:34:14;;;;;;;87.85;39.35;;;;;;;;;;7579722;19;19922;-71
2023/12/02 16:36:51;;;;;;;55.30;26.63;;;;;;;;;;7561051;19;20073;-71
2023/12/02 16:39:24;;;;;;;51.55;22.27;;;-2.30;99.90;;;;;;7551555;19;20497;-72
2023/12/02 16:41:56;;;;;;;57.72;28.67;;;;;;;;;;7557190;19;22151;-71
2023/12/02 16:44:29;;;;;;;53.17;25.73;;;;;;;;;;7553153;19;20018;-70
2023/12/02 16:47:03;;;;;;;86.45;42.60;;;;;;;;;;7576279;19;20277;-71
2023/12/02 16:49:36;;;;;;;49.78;23.40;;;-2.20;99.90;;;;;;7567179;19;20017;-71
2023/12/02 16:52:12;;;;;;;46.00;20.70;;;-2.20;99.90;;;;;;7557412;19;20029;-71
2023/12/02 16:54:45;;;;;;;88.78;46.38;;;-2.30;99.90;;;;;;7544938;19;20020;-71
2023/12/02 16:57:26;;;;;;;73.72;34.13;;;-2.40;99.90;;;;;;7548385;19;20400;-71
2023/12/02 17:00:03;;;;;;;74.80;36.90;;;-2.40;99.90;;;;;;7538581;19;20019;-71
2023/12/02 17:02:40;;;;;;;55.92;30.85;;;;;;;;;;7558478;19;20007;-71
2023/12/02 17:05:27;;;;;;;47.38;21.10;;;-2.30;99.90;;;;;;7546193;19;20810;-71
2023/12/02 17:08:27;;;;;;;38.92;19.73;;;-2.20;99.90;;;;;;7561875;19;20017;-70
2023/12/02 17:11:12;;;;;;;34.83;17.45;;;-2.30;99.90;;;;;;7572905;19;25100;-71
2023/12/02 17:13:59;;;;;;;43.45;22.48;;;-2.40;99.90;;;;;;7585916;19;20109;-70
2023/12/02 17:16:32;;;;;;;46.17;23.52;;;-2.40;99.90;;;;;;7591278;19;20053;-70
2023/12/02 17:19:08;;;;;;;33.28;17.15;;;-2.40;99.90;;;;;;7597242;19;20052;-70
2023/12/02 17:21:57;;;;;;;34.58;17.23;;;-2.50;99.90;;;;;;7590518;19;20045;-70
2023/12/02 17:24:33;;;;;;;42.38;20.30;;;-2.50;99.90;;;;;;7592423;19;20011;-70
2023/12/02 17:27:08;;;;;;;37.33;17.52;;;-2.40;99.90;;;;;;7596326;19;20019;-71
2023/12/02 17:29:41;;;;;;;31.48;16.52;;;-2.50;99.90;;;;;;7587220;19;20014;-69
2023/12/02 17:32:13;;;;;;;31.33;16.50;;;-2.50;99.90;;;;;;7589342;19;20018;-70
2023/12/02 17:34:45;;;;;;;31.42;15.13;;;-2.50;99.90;;;;;;7590477;19;20025;-69
2023/12/02 17:37:17;;;;;;;31.92;16.58;;;-2.60;99.90;;;;;;7596389;19;20025;-72
2023/12/02 17:39:50;;;;;;;33.13;17.33;;;-2.60;99.90;;;;;;7590360;19;20090;-69
2023/12/02 17:42:22;;;;;;;36.13;17.35;;;-2.50;99.90;;;;;;7586364;19;20021;-69
2023/12/02 17:44:54;;;;;;;39.10;18.80;;;-2.60;99.90;;;;;;7592531;19;20043;-72
2023/12/02 17:47:27;;;;;;;37.72;17.10;;;-2.60;99.90;;;;;;7593974;19;20021;-69
2023/12/02 17:49:59;;;;;;;34.65;16.75;;;-2.70;99.90;;;;;;7591345;19;20026;-69
2023/12/02 17:52:31;;;;;;;40.28;18.25;;;-2.60;99.90;;;;;;7593656;19;20500;-71
2023/12/02 17:55:04;;;;;;;36.17;17.45;;;-2.60;99.90;;;;;;7590530;19;20052;-69
2023/12/02 17:57:36;;;;;;;37.30;17.33;;;-2.70;99.90;;;;;;7594156;19;20024;-70
2023/12/02 18:00:12;;;;;;;32.97;16.57;;;-2.70;99.90;;;;;;7595937;19;20018;-72
2023/12/02 18:02:44;;;;;;;35.85;17.98;;;-2.80;99.90;;;;;;7589432;19;20078;-71
2023/12/02 18:05:16;;;;;;;38.67;19.25;;;-2.70;99.90;;;;;;7592240;19;20007;-69
2023/12/02 18:07:49;;;;;;;49.17;23.43;;;-2.60;99.90;;;;;;7592514;19;20026;-71
2023/12/02 18:10:21;;;;;;;39.90;19.60;;;;;;;;;;7594316;19;20045;-70
2023/12/02 18:12:54;;;;;;;43.67;21.10;;;;;;;;;;7590886;19;20014;-71
2023/12/02 18:15:26;;;;;;;44.63;19.87;;;;;;;;;;7595240;19;20381;-71
2023/12/02 18:17:59;;;;;;;36.75;16.50;;;;;;;;;;7594600;19;20323;-71
2023/12/02 18:20:33;;;;;;;40.28;20.23;;;-2.60;99.90;;;;;;7587366;19;20635;-71
2023/12/02 18:23:07;;;;;;;46.85;23.90;;;-2.50;99.90;;;;;;7593873;19;20060;-71
2023/12/02 18:25:39;;;;;;;42.72;20.20;;;-2.50;99.90;;;;;;7087894;19;9999770;-72
2023/12/02 18:28:11;;;;;;;48.20;22.77;;;-2.50;99.90;;;;;;7076172;19;10000612;-71
2023/12/02 18:30:45;;;;;;;52.22;25.02;;;;;;;;;;7590475;19;20614;-71
2023/12/02 18:33:20;;;;;;;41.95;21.55;;;;;;;;;;7588976;19;20010;-69
2023/12/02 18:35:53;;;;;;;50.60;24.35;;;;;;;;;;7583072;19;20007;-71
2023/12/02 18:38:26;;;;;;;46.72;22.92;;;-2.60;99.90;;;;;;7593731;19;20492;-69
2023/12/02 18:40:58;;;;;;;52.17;24.80;;;;;;;;;;7591829;19;20011;-72
2023/12/02 18:43:31;;;;;;;45.43;21.83;;;;;;;;;;7582334;19;20551;-70
2023/12/02 18:46:03;;;;;;;52.57;24.47;;;-2.60;99.90;;;;;;7600285;19;20318;-71
2023/12/02 18:48:35;;;;;;;45.50;22.25;;;-2.60;99.90;;;;;;7597404;19;20053;-71
2023/12/02 18:51:10;;;;;;;42.63;20.70;;;-2.60;99.90;;;;;;7598203;19;20025;-71
2023/12/02 18:53:42;;;;;;;45.13;21.98;;;-2.60;99.90;;;;;;7603261;19;20624;-71
2023/12/02 18:56:16;;;;;;;47.50;21.92;;;;;;;;;;7601687;19;20057;-71
2023/12/02 18:58:48;;;;;;;46.72;21.52;;;-2.60;99.90;;;;;;7589588;19;21633;-71
2023/12/02 19:01:20;;;;;;;47.70;22.83;;;-2.60;99.90;;;;;;7599826;19;20259;-71
2023/12/02 19:03:54;;;;;;;52.43;25.10;;;;;;;;;;7598146;19;20698;-70
2023/12/02 19:06:27;;;;;;;53.78;26.20;;;;;;;;;;7595602;19;20327;-71
2023/12/02 19:09:00;;;;;;;49.53;24.77;;;;;;;;;;7590807;19;26869;-71
2023/12/02 19:11:32;;;;;;;54.45;25.33;;;;;;;;;;7596216;19;20007;-69
2023/12/02 19:14:09;;;;;;;53.58;24.15;;;;;;;;;;7597254;19;20021;-71
2023/12/02 19:16:42;;;;;;;49.33;25.13;;;;;;;;;;7598336;19;20520;-68
2023/12/02 19:19:15;;;;;;;52.30;23.53;;;;;;;;;;7592009;19;20022;-71
2023/12/02 19:21:48;;;;;;;58.47;25.85;;;;;;;;;;7595285;19;20030;-71
2023/12/02 19:24:21;;;;;;;56.97;26.38;;;;;;;;;;7587959;19;20104;-70
2023/12/02 19:26:54;;;;;;;49.65;23.90;;;;;;;;;;7591998;19;20930;-71
2023/12/02 19:29:27;;;;;;;;;;;;;;;;;;7582012;19;20725;-68
2023/12/02 19:32:00;;;;;;;55.00;24.13;;;;;;;;;;7585878;19;20673;-70
2023/12/02 19:34:32;;;;;;;59.28;29.00;;;;;;;;;;7568370;19;21043;-70
2023/12/02 19:37:05;;;;;;;64.20;34.35;;;;;;;;;;7569128;19;20022;-71
2023/12/02 19:39:38;;;;;;;58.40;32.13;;;;;;;;;;7582729;19;20026;-70
2023/12/02 19:42:11;;;;;;;50.85;26.00;;;;;;;;;;7586128;19;20880;-71
2023/12/02 19:44:46;;;;;;;55.35;31.25;;;;;;;;;;7591986;19;20007;-69
2023/12/02 19:47:19;;;;;;;53.92;27.00;;;;;;;;;;7595212;19;20026;-69
2023/12/02 19:49:52;;;;;;;52.72;25.40;;;;;;;;;;7593637;19;20385;-69
2023/12/02 19:52:24;;;;;;;58.75;30.38;;;;;;;;;;7588088;19;20019;-69
2023/12/02 19:54:57;;;;;;;48.55;26.17;;;;;;;;;;7589649;19;20014;-69
2023/12/02 19:57:29;;;;;;;43.93;22.60;;;;;;;;;;7584898;19;20018;-70
2023/12/02 20:00:03;;;;;;;42.80;23.00;;;;;;;;;;7583096;19;20064;-69
2023/12/02 20:02:35;;;;;;;48.35;22.35;;;;;;;;;;7589888;19;20022;-70
2023/12/02 20:05:08;;;;;;;49.60;25.43;;;;;;;;;;7582722;19;20018;-70
2023/12/02 20:07:41;;;;;;;53.00;24.77;;;;;;;;;;7585306;19;20382;-70
2023/12/02 20:10:14;;;;;;;52.03;25.27;;;;;;;;;;7591208;19;20428;-70
2023/12/02 20:12:47;;;;;;;56.95;27.88;;;;;;;;;;7589863;19;20018;-69
2023/12/02 20:15:22;;;;;;;55.25;26.10;;;;;;;;;;7578855;19;20006;-70
2023/12/02 20:17:55;;;;;;;51.03;24.00;;;;;;;;;;7594334;19;20011;-69
2023/12/02 20:20:28;;;;;;;;;;;;;;;;;;7570541;19;20017;-69
2023/12/02 20:23:01;;;;;;;39.20;19.90;;;;;;;;;;7566482;19;19925;-70
2023/12/02 20:25:34;;;;;;;39.03;20.52;;;;;;;;;;7554648;19;20109;-69
2023/12/02 20:28:06;;;;;;;43.97;20.23;;;;;;;;;;7569132;19;20015;-69
2023/12/02 20:30:39;;;;;;;44.25;21.25;;;;;;;;;;7547767;19;20021;-69
2023/12/02 20:33:12;;;;;;;46.88;20.75;;;;;;;;;;7580480;19;20078;-70
2023/12/02 20:35:44;;;;;;;44.05;21.08;;;;;;;;;;7566361;19;20526;-70
2023/12/02 20:38:17;;;;;;;36.97;19.80;;;;;;;;;;7579609;19;20010;-70
2023/12/02 20:40:50;;;;;;;37.40;19.15;;;;;;;;;;7573068;19;20052;-70
2023/12/02 20:43:23;;;;;;;37.03;19.55;;;;;;;;;;7577838;19;20014;-69
2023/12/02 20:45:57;;;;;;;34.75;18.70;;;;;;;;;;7577007;19;20090;-69
2023/12/02 20:48:30;;;;;;;28.05;15.20;;;;;;;;;;7556013;19;20018;-68
2023/12/02 20:51:02;;;;;;;33.15;15.82;;;;;;;;;;7583953;19;20023;-69
2023/12/02 20:53:36;;;;;;;31.15;15.07;;;-2.70;99.90;;;;;;7574824;19;21607;-69
2023/12/02 20:56:09;;;;;;;31.45;16.60;;;-2.60;99.90;;;;;;7570732;19;21059;-68
2023/12/02 20:58:41;;;;;;;26.57;13.83;;;-2.60;99.90;;;;;;7564969;19;20052;-69
2023/12/02 21:01:13;;;;;;;27.98;13.52;;;-2.70;99.90;;;;;;7571689;19;22051;-70
2023/12/02 21:03:45;;;;;;;28.20;14.73;;;-2.60;99.90;;;;;;7551369;19;20006;-69
2023/12/02 21:06:18;;;;;;;23.58;13.05;;;-2.70;99.90;;;;;;7591379;19;20047;-69
2023/12/02 21:08:51;;;;;;;;;;;-2.80;99.90;;;;;;7546176;19;20115;-69
2023/12/02 21:11:23;;;;;;;23.50;12.68;;;-2.80;99.90;;;;;;7559925;19;19943;-69
2023/12/02 21:13:55;;;;;;;25.25;13.00;;;-2.90;99.90;;;;;;7564017;19;20010;-69
2023/12/02 21:16:28;;;;;;;22.73;12.25;;;-2.80;99.90;;;;;;7565447;19;20015;-69
2023/12/02 21:19:00;;;;;;;23.88;12.57;;;-2.80;99.90;;;;;;7569210;19;20024;-70
2023/12/02 21:21:33;;;;;;;30.42;13.65;;;-2.80;99.90;;;;;;7562391;19;20972;-68
2023/12/02 21:24:06;;;;;;;25.85;13.98;;;-2.90;99.90;;;;;;7567332;19;20014;-71
2023/12/02 21:26:39;;;;;;;22.27;12.57;;;-2.90;99.90;;;;;;7565472;19;20013;-72
